sensor_id;sensor_type;location;lat;lon;timestamp;P1;durP1;ratioP1;P2;durP2;ratioP2
67762;SDS011;54566;52.022;5.582;2023-06-14T00:01:07;5.80;;;2.75;;
67762;SDS011;54566;52.022;5.582;2023-06-14T00:03:34;6.82;;;2.75;;
67762;SDS011;54566;52.022;5.582;2023-06-14T00:06:00;12.73;;;2.50;;
67762;SDS011;54566;52.022;5.582;2023-06-14T00:08:27;11.65;;;2.70;;
67762;SDS011;54566;52.022;5.582;2023-06-14T00:10:53;6.73;;;2.73;;
67762;SDS011;54566;52.022;5.582;2023-06-14T00:13:19;11.80;;;2.88;;
67762;SDS011;54566;52.022;5.582;2023-06-14T00:15:45;7.45;;;2.75;;
67762;SDS011;54566;52.022;5.582;2023-06-14T00:18:12;10.02;;;2.63;;
67762;SDS011;54566;52.022;5.582;2023-06-14T00:20:38;12.80;;;2.88;;
67762;SDS011;54566;52.022;5.582;2023-06-14T00:25:32;8.27;;;2.30;;
67762;SDS011;54566;52.022;5.582;2023-06-14T00:27:58;8.88;;;2.70;;
67762;SDS011;54566;52.022;5.582;2023-06-14T00:30:24;12.13;;;3.03;;
67762;SDS011;54566;52.022;5.582;2023-06-14T00:32:55;8.50;;;2.60;;
67762;SDS011;54566;52.022;5.582;2023-06-14T00:35:21;6.00;;;2.60;;
67762;SDS011;54566;52.022;5.582;2023-06-14T00:37:47;7.47;;;3.20;;
67762;SDS011;54566;52.022;5.582;2023-06-14T00:40:13;3.33;;;2.40;;
67762;SDS011;54566;52.022;5.582;2023-06-14T00:42:39;9.25;;;2.60;;
67762;SDS011;54566;52.022;5.582;2023-06-14T00:45:05;5.95;;;3.20;;
67762;SDS011;54566;52.022;5.582;2023-06-14T00:47:31;9.20;;;2.75;;
67762;SDS011;54566;52.022;5.582;2023-06-14T00:49:57;10.45;;;2.40;;
67762;SDS011;54566;52.022;5.582;2023-06-14T00:52:24;8.13;;;2.72;;
67762;SDS011;54566;52.022;5.582;2023-06-14T00:54:50;8.27;;;3.05;;
67762;SDS011;54566;52.022;5.582;2023-06-14T00:57:16;7.60;;;2.65;;
67762;SDS011;54566;52.022;5.582;2023-06-14T00:59:43;12.20;;;2.88;;
67762;SDS011;54566;52.022;5.582;2023-06-14T01:02:09;12.35;;;3.03;;
67762;SDS011;54566;52.022;5.582;2023-06-14T01:04:36;17.60;;;3.38;;
67762;SDS011;54566;52.022;5.582;2023-06-14T01:07:07;6.70;;;2.58;;
67762;SDS011;54566;52.022;5.582;2023-06-14T01:15:05;7.30;;;2.78;;
67762;SDS011;54566;52.022;5.582;2023-06-14T01:17:32;9.63;;;2.63;;
67762;SDS011;54566;52.022;5.582;2023-06-14T01:19:59;7.28;;;2.60;;
67762;SDS011;54566;52.022;5.582;2023-06-14T01:22:27;9.13;;;2.58;;
67762;SDS011;54566;52.022;5.582;2023-06-14T01:24:54;9.55;;;2.58;;
67762;SDS011;54566;52.022;5.582;2023-06-14T01:27:23;10.82;;;2.92;;
67762;SDS011;54566;52.022;5.582;2023-06-14T01:29:53;9.35;;;2.60;;
67762;SDS011;54566;52.022;5.582;2023-06-14T01:32:21;7.13;;;2.40;;
67762;SDS011;54566;52.022;5.582;2023-06-14T01:34:48;9.23;;;2.60;;
67762;SDS011;54566;52.022;5.582;2023-06-14T01:37:14;8.02;;;3.33;;
67762;SDS011;54566;52.022;5.582;2023-06-14T01:39:40;5.45;;;2.42;;
67762;SDS011;54566;52.022;5.582;2023-06-14T01:42:08;6.72;;;2.63;;
67762;SDS011;54566;52.022;5.582;2023-06-14T01:44:36;14.40;;;2.80;;
67762;SDS011;54566;52.022;5.582;2023-06-14T01:47:02;10.55;;;2.75;;
67762;SDS011;54566;52.022;5.582;2023-06-14T01:49:28;7.82;;;2.53;;
67762;SDS011;54566;52.022;5.582;2023-06-14T01:51:55;12.90;;;3.30;;
67762;SDS011;54566;52.022;5.582;2023-06-14T01:54:21;12.20;;;3.42;;
67762;SDS011;54566;52.022;5.582;2023-06-14T01:56:47;7.68;;;2.78;;
67762;SDS011;54566;52.022;5.582;2023-06-14T01:59:13;4.55;;;2.67;;
67762;SDS011;54566;52.022;5.582;2023-06-14T02:01:39;6.78;;;2.42;;
67762;SDS011;54566;52.022;5.582;2023-06-14T02:04:05;12.88;;;2.75;;
67762;SDS011;54566;52.022;5.582;2023-06-14T02:06:31;10.18;;;2.35;;
67762;SDS011;54566;52.022;5.582;2023-06-14T02:09:00;6.53;;;2.70;;
67762;SDS011;54566;52.022;5.582;2023-06-14T02:11:26;8.75;;;2.88;;
67762;SDS011;54566;52.022;5.582;2023-06-14T02:13:52;6.60;;;2.60;;
67762;SDS011;54566;52.022;5.582;2023-06-14T02:16:18;11.18;;;2.47;;
67762;SDS011;54566;52.022;5.582;2023-06-14T02:18:44;9.70;;;2.50;;
67762;SDS011;54566;52.022;5.582;2023-06-14T02:21:10;12.30;;;2.65;;
67762;SDS011;54566;52.022;5.582;2023-06-14T02:23:36;9.25;;;2.58;;
67762;SDS011;54566;52.022;5.582;2023-06-14T02:26:02;15.45;;;2.85;;
67762;SDS011;54566;52.022;5.582;2023-06-14T02:28:28;12.43;;;2.85;;
67762;SDS011;54566;52.022;5.582;2023-06-14T02:30:54;8.32;;;2.88;;
67762;SDS011;54566;52.022;5.582;2023-06-14T02:33:21;7.75;;;2.78;;
67762;SDS011;54566;52.022;5.582;2023-06-14T02:35:47;8.50;;;2.70;;
67762;SDS011;54566;52.022;5.582;2023-06-14T02:38:13;13.23;;;2.60;;
67762;SDS011;54566;52.022;5.582;2023-06-14T02:40:39;7.75;;;2.80;;
67762;SDS011;54566;52.022;5.582;2023-06-14T02:43:07;14.43;;;2.70;;
67762;SDS011;54566;52.022;5.582;2023-06-14T02:45:33;6.15;;;2.38;;
67762;SDS011;54566;52.022;5.582;2023-06-14T02:47:59;16.98;;;3.13;;
67762;SDS011;54566;52.022;5.582;2023-06-14T02:50:25;9.18;;;2.42;;
67762;SDS011;54566;52.022;5.582;2023-06-14T02:52:53;8.32;;;2.40;;
67762;SDS011;54566;52.022;5.582;2023-06-14T02:55:20;9.77;;;2.70;;
67762;SDS011;54566;52.022;5.582;2023-06-14T02:57:46;9.27;;;2.72;;
67762;SDS011;54566;52.022;5.582;2023-06-14T03:00:13;8.48;;;2.60;;
67762;SDS011;54566;52.022;5.582;2023-06-14T03:02:39;9.60;;;2.85;;
67762;SDS011;54566;52.022;5.582;2023-06-14T03:05:07;7.57;;;2.65;;
67762;SDS011;54566;52.022;5.582;2023-06-14T03:07:34;8.35;;;2.60;;
67762;SDS011;54566;52.022;5.582;2023-06-14T03:10:06;13.40;;;3.05;;
67762;SDS011;54566;52.022;5.582;2023-06-14T03:12:33;12.23;;;2.60;;
67762;SDS011;54566;52.022;5.582;2023-06-14T03:14:59;10.95;;;2.85;;
67762;SDS011;54566;52.022;5.582;2023-06-14T03:17:29;12.57;;;2.58;;
67762;SDS011;54566;52.022;5.582;2023-06-14T03:19:58;5.68;;;2.58;;
67762;SDS011;54566;52.022;5.582;2023-06-14T03:22:24;6.53;;;2.58;;
67762;SDS011;54566;52.022;5.582;2023-06-14T03:24:51;9.20;;;2.85;;
67762;SDS011;54566;52.022;5.582;2023-06-14T03:27:17;10.73;;;2.50;;
67762;SDS011;54566;52.022;5.582;2023-06-14T03:29:44;6.43;;;2.80;;
67762;SDS011;54566;52.022;5.582;2023-06-14T03:32:10;11.73;;;2.85;;
67762;SDS011;54566;52.022;5.582;2023-06-14T03:34:36;9.00;;;3.10;;
67762;SDS011;54566;52.022;5.582;2023-06-14T03:37:03;7.82;;;2.70;;
67762;SDS011;54566;52.022;5.582;2023-06-14T03:39:29;10.80;;;2.80;;
67762;SDS011;54566;52.022;5.582;2023-06-14T03:41:56;7.32;;;2.88;;
67762;SDS011;54566;52.022;5.582;2023-06-14T03:44:22;7.10;;;2.67;;
67762;SDS011;54566;52.022;5.582;2023-06-14T03:46:48;6.25;;;2.42;;
67762;SDS011;54566;52.022;5.582;2023-06-14T03:49:15;8.25;;;2.83;;
67762;SDS011;54566;52.022;5.582;2023-06-14T03:51:42;13.15;;;2.50;;
67762;SDS011;54566;52.022;5.582;2023-06-14T03:54:08;9.13;;;2.67;;
67762;SDS011;54566;52.022;5.582;2023-06-14T03:56:34;9.10;;;2.60;;
67762;SDS011;54566;52.022;5.582;2023-06-14T03:59:01;7.38;;;2.45;;
67762;SDS011;54566;52.022;5.582;2023-06-14T04:01:27;11.52;;;2.22;;
67762;SDS011;54566;52.022;5.582;2023-06-14T04:03:55;4.73;;;2.70;;
67762;SDS011;54566;52.022;5.582;2023-06-14T04:06:21;11.20;;;2.70;;
67762;SDS011;54566;52.022;5.582;2023-06-14T04:08:49;7.85;;;2.40;;
67762;SDS011;54566;52.022;5.582;2023-06-14T04:11:15;6.60;;;2.60;;
67762;SDS011;54566;52.022;5.582;2023-06-14T04:13:41;12.00;;;2.88;;
67762;SDS011;54566;52.022;5.582;2023-06-14T04:16:07;8.68;;;3.10;;
67762;SDS011;54566;52.022;5.582;2023-06-14T04:18:33;10.57;;;2.33;;
67762;SDS011;54566;52.022;5.582;2023-06-14T04:20:59;13.73;;;2.97;;
67762;SDS011;54566;52.022;5.582;2023-06-14T04:23:25;9.20;;;2.72;;
67762;SDS011;54566;52.022;5.582;2023-06-14T04:25:53;10.70;;;2.70;;
67762;SDS011;54566;52.022;5.582;2023-06-14T04:28:19;8.52;;;2.50;;
67762;SDS011;54566;52.022;5.582;2023-06-14T04:30:46;9.20;;;2.47;;
67762;SDS011;54566;52.022;5.582;2023-06-14T04:33:12;13.68;;;2.28;;
67762;SDS011;54566;52.022;5.582;2023-06-14T04:35:38;10.50;;;2.65;;
67762;SDS011;54566;52.022;5.582;2023-06-14T04:38:06;9.15;;;2.40;;
67762;SDS011;54566;52.022;5.582;2023-06-14T04:40:35;9.13;;;2.40;;
67762;SDS011;54566;52.022;5.582;2023-06-14T04:43:08;13.50;;;2.60;;
67762;SDS011;54566;52.022;5.582;2023-06-14T04:45:37;5.10;;;2.25;;
67762;SDS011;54566;52.022;5.582;2023-06-14T04:48:04;6.15;;;2.40;;
67762;SDS011;54566;52.022;5.582;2023-06-14T04:50:32;6.33;;;2.53;;
67762;SDS011;54566;52.022;5.582;2023-06-14T04:53:00;7.07;;;2.58;;
67762;SDS011;54566;52.022;5.582;2023-06-14T04:55:26;7.72;;;2.47;;
67762;SDS011;54566;52.022;5.582;2023-06-14T04:57:52;8.45;;;2.47;;
67762;SDS011;54566;52.022;5.582;2023-06-14T05:00:19;10.27;;;2.70;;
67762;SDS011;54566;52.022;5.582;2023-06-14T05:02:45;4.55;;;2.35;;
67762;SDS011;54566;52.022;5.582;2023-06-14T05:05:13;6.80;;;2.40;;
67762;SDS011;54566;52.022;5.582;2023-06-14T05:07:43;10.45;;;2.60;;
67762;SDS011;54566;52.022;5.582;2023-06-14T05:10:10;4.80;;;2.35;;
67762;SDS011;54566;52.022;5.582;2023-06-14T05:12:36;5.43;;;2.15;;
67762;SDS011;54566;52.022;5.582;2023-06-14T05:15:02;9.15;;;2.60;;
67762;SDS011;54566;52.022;5.582;2023-06-14T05:17:28;4.40;;;2.40;;
67762;SDS011;54566;52.022;5.582;2023-06-14T05:19:54;5.35;;;2.13;;
67762;SDS011;54566;52.022;5.582;2023-06-14T05:22:21;7.38;;;2.67;;
67762;SDS011;54566;52.022;5.582;2023-06-14T05:24:47;7.68;;;2.33;;
67762;SDS011;54566;52.022;5.582;2023-06-14T05:27:13;16.88;;;2.67;;
67762;SDS011;54566;52.022;5.582;2023-06-14T05:29:39;6.57;;;2.53;;
67762;SDS011;54566;52.022;5.582;2023-06-14T05:32:05;6.07;;;2.60;;
67762;SDS011;54566;52.022;5.582;2023-06-14T05:34:31;5.85;;;2.60;;
67762;SDS011;54566;52.022;5.582;2023-06-14T05:36:57;10.23;;;2.40;;
67762;SDS011;54566;52.022;5.582;2023-06-14T05:39:23;7.63;;;2.47;;
67762;SDS011;54566;52.022;5.582;2023-06-14T05:41:50;11.38;;;2.67;;
67762;SDS011;54566;52.022;5.582;2023-06-14T05:44:24;7.80;;;2.42;;
67762;SDS011;54566;52.022;5.582;2023-06-14T05:46:50;7.53;;;2.75;;
67762;SDS011;54566;52.022;5.582;2023-06-14T05:49:16;7.25;;;2.47;;
67762;SDS011;54566;52.022;5.582;2023-06-14T05:51:45;9.27;;;2.40;;
67762;SDS011;54566;52.022;5.582;2023-06-14T05:54:11;7.05;;;2.70;;
67762;SDS011;54566;52.022;5.582;2023-06-14T05:56:37;13.20;;;2.50;;
67762;SDS011;54566;52.022;5.582;2023-06-14T05:59:03;13.45;;;2.60;;
67762;SDS011;54566;52.022;5.582;2023-06-14T06:01:32;7.97;;;2.70;;
67762;SDS011;54566;52.022;5.582;2023-06-14T06:04:05;5.40;;;2.33;;
67762;SDS011;54566;52.022;5.582;2023-06-14T06:06:31;8.23;;;2.13;;
67762;SDS011;54566;52.022;5.582;2023-06-14T06:08:57;16.65;;;2.63;;
67762;SDS011;54566;52.022;5.582;2023-06-14T06:11:23;7.43;;;2.22;;
67762;SDS011;54566;52.022;5.582;2023-06-14T06:13:49;8.27;;;2.55;;
67762;SDS011;54566;52.022;5.582;2023-06-14T06:16:15;10.90;;;2.92;;
67762;SDS011;54566;52.022;5.582;2023-06-14T06:18:41;11.35;;;2.60;;
67762;SDS011;54566;52.022;5.582;2023-06-14T06:21:07;10.43;;;2.42;;
67762;SDS011;54566;52.022;5.582;2023-06-14T06:23:33;8.48;;;2.30;;
67762;SDS011;54566;52.022;5.582;2023-06-14T06:26:00;9.98;;;2.67;;
67762;SDS011;54566;52.022;5.582;2023-06-14T06:28:26;7.57;;;2.25;;
67762;SDS011;54566;52.022;5.582;2023-06-14T06:30:52;4.95;;;2.50;;
67762;SDS011;54566;52.022;5.582;2023-06-14T06:33:18;7.50;;;2.92;;
67762;SDS011;54566;52.022;5.582;2023-06-14T06:35:44;10.73;;;3.28;;
67762;SDS011;54566;52.022;5.582;2023-06-14T06:38:10;9.75;;;2.92;;
67762;SDS011;54566;52.022;5.582;2023-06-14T06:40:36;8.73;;;2.30;;
67762;SDS011;54566;52.022;5.582;2023-06-14T06:43:03;9.05;;;2.60;;
67762;SDS011;54566;52.022;5.582;2023-06-14T06:45:29;13.40;;;3.00;;
67762;SDS011;54566;52.022;5.582;2023-06-14T06:47:55;6.40;;;2.60;;
67762;SDS011;54566;52.022;5.582;2023-06-14T06:50:22;11.70;;;2.58;;
67762;SDS011;54566;52.022;5.582;2023-06-14T06:52:49;13.60;;;2.42;;
67762;SDS011;54566;52.022;5.582;2023-06-14T06:55:16;8.23;;;2.30;;
67762;SDS011;54566;52.022;5.582;2023-06-14T06:57:43;6.15;;;2.30;;
67762;SDS011;54566;52.022;5.582;2023-06-14T07:00:09;6.30;;;2.45;;
67762;SDS011;54566;52.022;5.582;2023-06-14T07:02:36;8.13;;;2.15;;
67762;SDS011;54566;52.022;5.582;2023-06-14T07:05:02;15.68;;;2.95;;
67762;SDS011;54566;52.022;5.582;2023-06-14T07:07:28;9.25;;;2.60;;
67762;SDS011;54566;52.022;5.582;2023-06-14T07:09:54;7.05;;;2.50;;
67762;SDS011;54566;52.022;5.582;2023-06-14T07:12:22;12.10;;;2.78;;
67762;SDS011;54566;52.022;5.582;2023-06-14T07:14:48;11.20;;;2.03;;
67762;SDS011;54566;52.022;5.582;2023-06-14T07:17:14;10.73;;;2.20;;
67762;SDS011;54566;52.022;5.582;2023-06-14T07:19:40;7.35;;;2.30;;
67762;SDS011;54566;52.022;5.582;2023-06-14T07:22:06;11.48;;;2.42;;
67762;SDS011;54566;52.022;5.582;2023-06-14T07:24:32;15.05;;;2.33;;
67762;SDS011;54566;52.022;5.582;2023-06-14T07:29:26;10.03;;;2.03;;
67762;SDS011;54566;52.022;5.582;2023-06-14T07:31:52;10.52;;;2.13;;
67762;SDS011;54566;52.022;5.582;2023-06-14T07:34:18;10.75;;;2.28;;
67762;SDS011;54566;52.022;5.582;2023-06-14T07:36:44;6.57;;;2.05;;
67762;SDS011;54566;52.022;5.582;2023-06-14T07:39:10;4.05;;;1.90;;
67762;SDS011;54566;52.022;5.582;2023-06-14T07:41:36;9.05;;;2.20;;
67762;SDS011;54566;52.022;5.582;2023-06-14T07:44:06;9.98;;;1.80;;
67762;SDS011;54566;52.022;5.582;2023-06-14T07:46:32;6.00;;;2.10;;
67762;SDS011;54566;52.022;5.582;2023-06-14T07:48:59;7.90;;;1.90;;
67762;SDS011;54566;52.022;5.582;2023-06-14T07:51:25;5.38;;;1.70;;
67762;SDS011;54566;52.022;5.582;2023-06-14T07:53:51;6.35;;;1.95;;
67762;SDS011;54566;52.022;5.582;2023-06-14T07:56:17;7.70;;;1.80;;
67762;SDS011;54566;52.022;5.582;2023-06-14T07:58:43;3.60;;;1.70;;
67762;SDS011;54566;52.022;5.582;2023-06-14T08:01:09;12.38;;;1.58;;
67762;SDS011;54566;52.022;5.582;2023-06-14T08:03:36;7.27;;;1.70;;
67762;SDS011;54566;52.022;5.582;2023-06-14T08:06:02;10.05;;;1.73;;
67762;SDS011;54566;52.022;5.582;2023-06-14T08:08:29;2.88;;;1.80;;
67762;SDS011;54566;52.022;5.582;2023-06-14T08:10:55;7.18;;;1.60;;
67762;SDS011;54566;52.022;5.582;2023-06-14T08:13:21;15.25;;;2.15;;
67762;SDS011;54566;52.022;5.582;2023-06-14T08:15:47;2.40;;;1.55;;
67762;SDS011;54566;52.022;5.582;2023-06-14T08:18:13;5.72;;;2.15;;
67762;SDS011;54566;52.022;5.582;2023-06-14T08:20:40;5.07;;;1.48;;
67762;SDS011;54566;52.022;5.582;2023-06-14T08:23:06;7.80;;;1.50;;
67762;SDS011;54566;52.022;5.582;2023-06-14T08:25:33;4.60;;;1.50;;
67762;SDS011;54566;52.022;5.582;2023-06-14T08:28:00;4.30;;;1.63;;
67762;SDS011;54566;52.022;5.582;2023-06-14T08:30:26;5.40;;;1.83;;
67762;SDS011;54566;52.022;5.582;2023-06-14T08:32:52;3.60;;;1.70;;
67762;SDS011;54566;52.022;5.582;2023-06-14T08:35:20;2.20;;;1.20;;
67762;SDS011;54566;52.022;5.582;2023-06-14T08:37:47;5.40;;;1.50;;
67762;SDS011;54566;52.022;5.582;2023-06-14T08:40:22;2.35;;;1.65;;
67762;SDS011;54566;52.022;5.582;2023-06-14T08:42:52;4.35;;;1.65;;
67762;SDS011;54566;52.022;5.582;2023-06-14T08:45:19;3.60;;;1.45;;
67762;SDS011;54566;52.022;5.582;2023-06-14T08:47:46;4.43;;;1.23;;
67762;SDS011;54566;52.022;5.582;2023-06-14T08:50:17;5.35;;;1.40;;
67762;SDS011;54566;52.022;5.582;2023-06-14T08:52:45;4.28;;;1.42;;
67762;SDS011;54566;52.022;5.582;2023-06-14T08:55:15;7.75;;;1.73;;
67762;SDS011;54566;52.022;5.582;2023-06-14T08:57:42;2.65;;;1.52;;
67762;SDS011;54566;52.022;5.582;2023-06-14T09:00:12;8.45;;;1.63;;
67762;SDS011;54566;52.022;5.582;2023-06-14T09:02:41;2.80;;;1.40;;
67762;SDS011;54566;52.022;5.582;2023-06-14T09:05:11;2.08;;;1.48;;
67762;SDS011;54566;52.022;5.582;2023-06-14T09:07:39;5.45;;;1.27;;
67762;SDS011;54566;52.022;5.582;2023-06-14T09:10:07;5.05;;;1.63;;
67762;SDS011;54566;52.022;5.582;2023-06-14T09:15:10;3.65;;;1.45;;
67762;SDS011;54566;52.022;5.582;2023-06-14T09:17:43;5.63;;;1.40;;
67762;SDS011;54566;52.022;5.582;2023-06-14T09:20:09;9.50;;;1.63;;
67762;SDS011;54566;52.022;5.582;2023-06-14T09:22:38;3.28;;;1.42;;
67762;SDS011;54566;52.022;5.582;2023-06-14T09:25:04;4.15;;;1.60;;
67762;SDS011;54566;52.022;5.582;2023-06-14T09:27:36;5.70;;;1.80;;
67762;SDS011;54566;52.022;5.582;2023-06-14T09:30:13;5.03;;;1.60;;
67762;SDS011;54566;52.022;5.582;2023-06-14T09:32:39;3.05;;;1.30;;
67762;SDS011;54566;52.022;5.582;2023-06-14T09:35:21;1.33;;;1.23;;
67762;SDS011;54566;52.022;5.582;2023-06-14T09:37:53;5.57;;;1.40;;
67762;SDS011;54566;52.022;5.582;2023-06-14T09:40:20;3.60;;;1.40;;
67762;SDS011;54566;52.022;5.582;2023-06-14T09:42:47;3.30;;;1.40;;
67762;SDS011;54566;52.022;5.582;2023-06-14T09:45:13;6.22;;;1.60;;
67762;SDS011;54566;52.022;5.582;2023-06-14T09:47:46;7.32;;;1.50;;
67762;SDS011;54566;52.022;5.582;2023-06-14T09:50:13;2.88;;;1.50;;
67762;SDS011;54566;52.022;5.582;2023-06-14T09:52:39;6.38;;;1.55;;
67762;SDS011;54566;52.022;5.582;2023-06-14T09:55:07;7.25;;;1.40;;
67762;SDS011;54566;52.022;5.582;2023-06-14T09:57:35;7.75;;;1.48;;
67762;SDS011;54566;52.022;5.582;2023-06-14T10:00:02;5.30;;;1.40;;
67762;SDS011;54566;52.022;5.582;2023-06-14T10:02:35;6.00;;;1.60;;
67762;SDS011;54566;52.022;5.582;2023-06-14T10:07:32;4.50;;;1.20;;
67762;SDS011;54566;52.022;5.582;2023-06-14T10:10:01;2.28;;;1.60;;
67762;SDS011;54566;52.022;5.582;2023-06-14T10:12:27;5.93;;;1.55;;
67762;SDS011;54566;52.022;5.582;2023-06-14T10:14:56;6.30;;;1.50;;
67762;SDS011;54566;52.022;5.582;2023-06-14T10:17:47;4.40;;;1.52;;
67762;SDS011;54566;52.022;5.582;2023-06-14T10:22:44;6.80;;;1.52;;
67762;SDS011;54566;52.022;5.582;2023-06-14T10:25:13;2.78;;;1.40;;
67762;SDS011;54566;52.022;5.582;2023-06-14T10:27:52;5.07;;;1.70;;
67762;SDS011;54566;52.022;5.582;2023-06-14T10:30:18;5.68;;;1.50;;
67762;SDS011;54566;52.022;5.582;2023-06-14T10:33:06;5.72;;;1.40;;
67762;SDS011;54566;52.022;5.582;2023-06-14T10:35:33;6.03;;;1.33;;
67762;SDS011;54566;52.022;5.582;2023-06-14T10:38:11;13.35;;;1.63;;
67762;SDS011;54566;52.022;5.582;2023-06-14T10:40:38;2.03;;;1.35;;
67762;SDS011;54566;52.022;5.582;2023-06-14T10:46:28;4.00;;;1.55;;
67762;SDS011;54566;52.022;5.582;2023-06-14T10:49:36;3.72;;;1.50;;
67762;SDS011;54566;52.022;5.582;2023-06-14T10:52:07;4.00;;;1.60;;
67762;SDS011;54566;52.022;5.582;2023-06-14T10:54:51;5.40;;;1.50;;
67762;SDS011;54566;52.022;5.582;2023-06-14T10:57:20;8.02;;;1.38;;
67762;SDS011;54566;52.022;5.582;2023-06-14T10:59:47;4.85;;;1.50;;
67762;SDS011;54566;52.022;5.582;2023-06-14T11:02:37;4.78;;;1.50;;
67762;SDS011;54566;52.022;5.582;2023-06-14T11:05:13;6.57;;;1.30;;
67762;SDS011;54566;52.022;5.582;2023-06-14T11:10:10;4.00;;;1.38;;
67762;SDS011;54566;52.022;5.582;2023-06-14T11:12:45;3.47;;;1.60;;
67762;SDS011;54566;52.022;5.582;2023-06-14T11:15:13;6.78;;;3.05;;
67762;SDS011;54566;52.022;5.582;2023-06-14T11:17:39;3.67;;;1.55;;
67762;SDS011;54566;52.022;5.582;2023-06-14T11:20:12;5.45;;;1.50;;
67762;SDS011;54566;52.022;5.582;2023-06-14T11:22:42;4.30;;;1.38;;
67762;SDS011;54566;52.022;5.582;2023-06-14T11:25:09;2.53;;;1.40;;
67762;SDS011;54566;52.022;5.582;2023-06-14T11:27:36;6.85;;;1.60;;
67762;SDS011;54566;52.022;5.582;2023-06-14T11:30:03;3.33;;;1.50;;
67762;SDS011;54566;52.022;5.582;2023-06-14T11:32:31;3.90;;;1.27;;
67762;SDS011;54566;52.022;5.582;2023-06-14T11:35:04;3.53;;;1.48;;
67762;SDS011;54566;52.022;5.582;2023-06-14T11:37:30;4.93;;;1.45;;
67762;SDS011;54566;52.022;5.582;2023-06-14T11:40:00;5.10;;;1.40;;
67762;SDS011;54566;52.022;5.582;2023-06-14T11:42:33;2.72;;;1.42;;
67762;SDS011;54566;52.022;5.582;2023-06-14T11:44:59;7.57;;;1.77;;
67762;SDS011;54566;52.022;5.582;2023-06-14T11:47:36;8.85;;;1.90;;
67762;SDS011;54566;52.022;5.582;2023-06-14T11:50:02;3.38;;;1.50;;
67762;SDS011;54566;52.022;5.582;2023-06-14T11:52:29;4.78;;;1.45;;
67762;SDS011;54566;52.022;5.582;2023-06-14T11:54:55;5.30;;;1.70;;
67762;SDS011;54566;52.022;5.582;2023-06-14T11:57:24;2.25;;;1.20;;
67762;SDS011;54566;52.022;5.582;2023-06-14T11:59:54;4.82;;;1.38;;
67762;SDS011;54566;52.022;5.582;2023-06-14T12:02:21;3.70;;;1.50;;
67762;SDS011;54566;52.022;5.582;2023-06-14T12:04:47;9.63;;;1.60;;
67762;SDS011;54566;52.022;5.582;2023-06-14T12:07:14;3.63;;;1.40;;
67762;SDS011;54566;52.022;5.582;2023-06-14T12:12:23;3.65;;;1.27;;
67762;SDS011;54566;52.022;5.582;2023-06-14T12:14:52;17.23;;;1.55;;
67762;SDS011;54566;52.022;5.582;2023-06-14T12:17:19;9.05;;;1.77;;
67762;SDS011;54566;52.022;5.582;2023-06-14T12:20:05;5.78;;;1.55;;
67762;SDS011;54566;52.022;5.582;2023-06-14T12:22:53;9.75;;;1.48;;
67762;SDS011;54566;52.022;5.582;2023-06-14T12:25:30;9.43;;;1.60;;
67762;SDS011;54566;52.022;5.582;2023-06-14T12:27:59;6.88;;;1.70;;
67762;SDS011;54566;52.022;5.582;2023-06-14T12:30:26;14.82;;;1.60;;
67762;SDS011;54566;52.022;5.582;2023-06-14T12:32:57;8.27;;;1.30;;
67762;SDS011;54566;52.022;5.582;2023-06-14T12:35:23;3.05;;;1.35;;
67762;SDS011;54566;52.022;5.582;2023-06-14T12:37:50;2.90;;;1.50;;
67762;SDS011;54566;52.022;5.582;2023-06-14T12:40:18;5.68;;;1.50;;
67762;SDS011;54566;52.022;5.582;2023-06-14T12:42:45;7.82;;;1.60;;
67762;SDS011;54566;52.022;5.582;2023-06-14T12:45:15;2.17;;;1.45;;
67762;SDS011;54566;52.022;5.582;2023-06-14T12:47:41;6.25;;;1.70;;
67762;SDS011;54566;52.022;5.582;2023-06-14T12:50:07;7.82;;;1.67;;
67762;SDS011;54566;52.022;5.582;2023-06-14T12:52:33;4.97;;;1.98;;
67762;SDS011;54566;52.022;5.582;2023-06-14T12:55:03;5.22;;;1.80;;
67762;SDS011;54566;52.022;5.582;2023-06-14T12:57:29;1.42;;;1.20;;
67762;SDS011;54566;52.022;5.582;2023-06-14T12:59:55;1.60;;;1.20;;
67762;SDS011;54566;52.022;5.582;2023-06-14T13:02:21;3.10;;;1.42;;
67762;SDS011;54566;52.022;5.582;2023-06-14T13:04:49;9.55;;;1.50;;
67762;SDS011;54566;52.022;5.582;2023-06-14T13:07:16;8.38;;;1.52;;
67762;SDS011;54566;52.022;5.582;2023-06-14T13:09:46;5.47;;;1.30;;
67762;SDS011;54566;52.022;5.582;2023-06-14T13:12:15;2.85;;;1.50;;
67762;SDS011;54566;52.022;5.582;2023-06-14T13:14:41;2.40;;;1.23;;
67762;SDS011;54566;52.022;5.582;2023-06-14T13:17:08;5.57;;;1.27;;
67762;SDS011;54566;52.022;5.582;2023-06-14T13:19:34;12.15;;;1.42;;
67762;SDS011;54566;52.022;5.582;2023-06-14T13:22:00;2.50;;;1.10;;
67762;SDS011;54566;52.022;5.582;2023-06-14T13:24:27;14.95;;;1.40;;
67762;SDS011;54566;52.022;5.582;2023-06-14T13:29:20;3.90;;;1.08;;
67762;SDS011;54566;52.022;5.582;2023-06-14T13:31:49;1.30;;;1.20;;
67762;SDS011;54566;52.022;5.582;2023-06-14T13:34:17;1.48;;;1.20;;
67762;SDS011;54566;52.022;5.582;2023-06-14T13:36:46;5.45;;;1.55;;
67762;SDS011;54566;52.022;5.582;2023-06-14T13:39:12;5.82;;;1.30;;
67762;SDS011;54566;52.022;5.582;2023-06-14T13:41:38;1.45;;;1.10;;
67762;SDS011;54566;52.022;5.582;2023-06-14T13:44:05;4.95;;;1.10;;
67762;SDS011;54566;52.022;5.582;2023-06-14T13:46:31;1.70;;;1.00;;
67762;SDS011;54566;52.022;5.582;2023-06-14T13:48:57;6.53;;;1.30;;
67762;SDS011;54566;52.022;5.582;2023-06-14T13:51:25;8.38;;;1.30;;
67762;SDS011;54566;52.022;5.582;2023-06-14T13:53:52;5.90;;;1.00;;
67762;SDS011;54566;52.022;5.582;2023-06-14T13:56:18;3.13;;;1.10;;
67762;SDS011;54566;52.022;5.582;2023-06-14T13:58:44;5.35;;;1.50;;
67762;SDS011;54566;52.022;5.582;2023-06-14T14:01:12;2.65;;;1.08;;
67762;SDS011;54566;52.022;5.582;2023-06-14T14:06:04;5.20;;;1.20;;
67762;SDS011;54566;52.022;5.582;2023-06-14T14:08:31;3.03;;;1.30;;
67762;SDS011;54566;52.022;5.582;2023-06-14T14:10:57;5.38;;;1.20;;
67762;SDS011;54566;52.022;5.582;2023-06-14T14:13:23;3.53;;;1.00;;
67762;SDS011;54566;52.022;5.582;2023-06-14T14:15:49;3.88;;;1.02;;
67762;SDS011;54566;52.022;5.582;2023-06-14T14:18:16;4.32;;;1.60;;
67762;SDS011;54566;52.022;5.582;2023-06-14T14:20:42;7.85;;;1.40;;
67762;SDS011;54566;52.022;5.582;2023-06-14T14:23:09;1.00;;;0.95;;
67762;SDS011;54566;52.022;5.582;2023-06-14T14:25:35;2.08;;;1.27;;
67762;SDS011;54566;52.022;5.582;2023-06-14T14:28:01;3.58;;;1.40;;
67762;SDS011;54566;52.022;5.582;2023-06-14T14:30:28;2.92;;;1.10;;
67762;SDS011;54566;52.022;5.582;2023-06-14T14:32:54;6.50;;;1.20;;
67762;SDS011;54566;52.022;5.582;2023-06-14T14:35:20;8.23;;;1.17;;
67762;SDS011;54566;52.022;5.582;2023-06-14T14:37:48;3.65;;;1.10;;
67762;SDS011;54566;52.022;5.582;2023-06-14T14:40:14;4.80;;;1.17;;
67762;SDS011;54566;52.022;5.582;2023-06-14T14:42:41;3.58;;;1.20;;
67762;SDS011;54566;52.022;5.582;2023-06-14T14:45:07;0.95;;;0.93;;
67762;SDS011;54566;52.022;5.582;2023-06-14T14:47:33;5.00;;;1.30;;
67762;SDS011;54566;52.022;5.582;2023-06-14T14:50:01;2.88;;;1.00;;
67762;SDS011;54566;52.022;5.582;2023-06-14T14:52:33;5.93;;;1.33;;
67762;SDS011;54566;52.022;5.582;2023-06-14T14:55:01;3.80;;;1.30;;
67762;SDS011;54566;52.022;5.582;2023-06-14T14:57:30;2.30;;;1.20;;
67762;SDS011;54566;52.022;5.582;2023-06-14T14:59:57;7.85;;;1.30;;
67762;SDS011;54566;52.022;5.582;2023-06-14T15:02:26;4.05;;;1.30;;
67762;SDS011;54566;52.022;5.582;2023-06-14T15:04:52;5.80;;;1.40;;
67762;SDS011;54566;52.022;5.582;2023-06-14T15:07:19;2.67;;;1.35;;
67762;SDS011;54566;52.022;5.582;2023-06-14T15:09:48;6.18;;;1.13;;
67762;SDS011;54566;52.022;5.582;2023-06-14T15:12:16;0.95;;;0.90;;
67762;SDS011;54566;52.022;5.582;2023-06-14T15:14:49;17.85;;;1.40;;
67762;SDS011;54566;52.022;5.582;2023-06-14T15:17:16;8.77;;;1.20;;
67762;SDS011;54566;52.022;5.582;2023-06-14T15:19:43;4.72;;;1.17;;